Time;durP1;ratioP1;P1;durP2;ratioP2;P2;SDS_P1;SDS_P2;PMS_P1;PMS_P2;Temp;Humidity;BMP_temperature;BMP_pressure;BME280_temperature;BME280_humidity;BME280_pressure;Samples;Min_cycle;Max_cycle;Signal;HPM_P1;HPM_P2
2022/07/18 00:01:09;;;;;;;4.83;2.10;;;16.90;93.40;;;;;;5056174;28;20463;-95
2022/07/18 00:03:36;;;;;;;2.70;2.27;;;16.90;93.60;;;;;;5055837;28;20428;-96
2022/07/18 00:06:03;;;;;;;3.00;1.70;;;16.90;93.70;;;;;;5070895;28;20443;-95
2022/07/18 00:08:30;;;;;;;4.07;2.10;;;16.80;93.50;;;;;;5075905;28;20448;-95
2022/07/18 00:10:57;;;;;;;1.80;1.70;;;16.80;93.20;;;;;;5075718;28;20442;-95
2022/07/18 00:13:25;;;;;;;2.67;2.20;;;16.80;93.20;;;;;;5075714;28;20462;-95
2022/07/18 00:15:52;;;;;;;2.30;2.10;;;16.80;93.40;;;;;;5075641;28;20432;-94
2022/07/18 00:18:19;;;;;;;2.53;2.33;;;16.70;93.20;;;;;;5075803;28;20499;-95
2022/07/18 00:20:46;;;;;;;2.17;1.83;;;16.70;93.20;;;;;;5072836;28;20456;-92
2022/07/18 00:23:13;;;;;;;3.40;1.93;;;16.70;92.90;;;;;;5064110;28;20442;-95
2022/07/18 00:25:39;;;;;;;3.10;1.80;;;16.60;92.70;;;;;;5064892;28;20468;-95
2022/07/18 00:28:06;;;;;;;2.57;2.03;;;16.60;92.60;;;;;;4032246;22;22093;-69
2022/07/18 00:30:35;;;;;;;3.90;2.33;;;16.50;92.80;;;;;;5008593;28;20466;-70
2022/07/18 00:33:02;;;;;;;2.00;1.80;;;16.50;93.00;;;;;;5008732;28;20492;-71
2022/07/18 00:35:28;;;;;;;1.70;1.60;;;16.40;93.10;;;;;;5010620;28;20485;-71
2022/07/18 00:37:55;;;;;;;1.90;1.70;;;16.40;93.30;;;;;;5010155;28;20473;-70
2022/07/18 00:40:22;;;;;;;1.80;1.60;;;16.40;93.50;;;;;;5011413;28;20856;-70
2022/07/18 00:42:49;;;;;;;3.00;1.90;;;16.40;93.60;;;;;;5014091;28;20468;-71
2022/07/18 00:45:15;;;;;;;2.13;1.77;;;16.40;93.60;;;;;;5013825;28;20992;-70
2022/07/18 00:47:43;;;;;;;2.10;1.77;;;16.40;93.40;;;;;;5013740;28;20490;-71
2022/07/18 00:50:11;;;;;;;2.27;1.60;;;16.30;93.30;;;;;;5013280;28;20465;-71
2022/07/18 00:52:38;;;;;;;2.27;1.47;;;16.30;93.00;;;;;;5013643;28;20461;-71
2022/07/18 00:55:07;;;;;;;1.97;1.60;;;16.30;92.70;;;;;;5013700;28;20535;-71
2022/07/18 00:57:33;;;;;;;4.60;2.77;;;16.20;92.50;;;;;;5013880;28;20464;-70
2022/07/18 01:02:46;;;;;;;1.70;1.50;;;16.10;92.60;;;;;;5012614;28;20858;-71
2022/07/18 01:05:12;;;;;;;2.20;1.97;;;16.10;92.50;;;;;;5013595;28;20492;-71
2022/07/18 01:07:39;;;;;;;2.27;1.60;;;16.00;92.50;;;;;;5013358;28;21037;-71
2022/07/18 01:10:07;;;;;;;2.17;1.60;;;16.00;92.60;;;;;;5013019;28;20846;-71
2022/07/18 01:12:34;;;;;;;2.03;1.77;;;16.00;92.70;;;;;;5013278;28;20468;-71
2022/07/18 01:15:00;;;;;;;2.33;1.73;;;16.00;92.80;;;;;;5013377;28;20485;-71
2022/07/18 01:17:27;;;;;;;5.20;1.90;;;16.00;92.80;;;;;;5013226;28;20465;-71
2022/07/18 01:19:55;;;;;;;2.00;1.50;;;15.90;92.70;;;;;;5012789;28;20480;-71
2022/07/18 01:22:23;;;;;;;1.80;1.70;;;15.90;92.90;;;;;;5013184;28;20466;-71
2022/07/18 01:24:50;;;;;;;1.97;1.80;;;15.90;93.00;;;;;;5013006;28;20831;-71
2022/07/18 01:27:18;;;;;;;3.43;1.90;;;15.90;92.90;;;;;;5013132;28;20492;-71
2022/07/18 01:29:47;;;;;;;1.97;1.67;;;15.80;92.70;;;;;;5012212;28;20480;-71
2022/07/18 01:32:14;;;;;;;4.13;1.90;;;15.80;92.90;;;;;;5013144;28;20953;-71
2022/07/18 01:34:41;;;;;;;2.07;1.60;;;15.80;92.90;;;;;;5012700;28;21008;-71
2022/07/18 01:37:09;;;;;;;2.30;1.90;;;15.80;93.00;;;;;;5012857;28;20496;-70
2022/07/18 01:39:37;;;;;;;2.90;1.70;;;15.80;92.90;;;;;;5012134;28;20469;-71
2022/07/18 01:42:06;;;;;;;2.43;1.60;;;15.70;92.90;;;;;;5012935;28;20489;-71
2022/07/18 01:44:35;;;;;;;2.30;1.80;;;15.70;92.70;;;;;;5012610;28;20883;-71
2022/07/18 01:47:02;;;;;;;1.50;1.40;;;15.60;92.70;;;;;;5012748;28;20476;-71
2022/07/18 01:49:29;;;;;;;2.43;1.80;;;15.60;92.50;;;;;;5011970;28;20465;-71
2022/07/18 01:51:57;;;;;;;2.43;1.80;;;15.60;92.40;;;;;;5011429;28;20968;-71
2022/07/18 01:54:25;;;;;;;2.20;1.80;;;15.60;92.50;;;;;;5012541;28;20472;-71
2022/07/18 01:56:53;;;;;;;4.47;1.60;;;15.50;92.40;;;;;;5012645;28;20472;-71
2022/07/18 01:59:20;;;;;;;2.07;1.63;;;15.50;92.50;;;;;;5011923;28;20465;-70
2022/07/18 02:01:47;;;;;;;1.50;1.40;;;15.50;92.70;;;;;;5012461;28;20461;-71
2022/07/18 02:04:14;;;;;;;1.70;1.43;;;15.50;92.50;;;;;;5012481;28;20472;-71
2022/07/18 02:06:41;;;;;;;2.60;1.40;;;15.40;92.60;;;;;;5012213;28;20985;-71
2022/07/18 02:09:08;;;;;;;1.70;1.40;;;15.40;92.60;;;;;;5011943;28;20891;-71
2022/07/18 02:11:36;;;;;;;2.63;1.50;;;15.40;92.60;;;;;;5011984;28;20868;-71
2022/07/18 02:14:05;;;;;;;1.70;1.50;;;15.40;92.70;;;;;;5012218;28;20461;-71
2022/07/18 02:16:33;;;;;;;2.13;1.40;;;15.40;92.80;;;;;;5011971;28;20492;-71
2022/07/18 02:18:59;;;;;;;1.77;1.67;;;15.30;92.70;;;;;;5012099;28;20472;-70
2022/07/18 02:21:26;;;;;;;1.60;1.50;;;15.30;92.60;;;;;;5011470;28;20840;-71
2022/07/18 02:23:54;;;;;;;1.60;1.50;;;15.30;92.50;;;;;;5012135;28;20465;-71
2022/07/18 02:26:21;;;;;;;2.50;2.10;;;15.20;92.60;;;;;;5011986;28;20572;-70
2022/07/18 02:28:47;;;;;;;3.07;1.70;;;15.20;92.70;;;;;;5011758;28;20485;-70
2022/07/18 02:31:15;;;;;;;2.13;1.70;;;15.20;92.70;;;;;;5011483;28;20487;-70
2022/07/18 02:33:42;;;;;;;2.07;1.47;;;15.10;92.80;;;;;;5011865;28;21268;-70
2022/07/18 02:36:09;;;;;;;2.03;1.60;;;15.10;92.70;;;;;;5011722;28;21048;-70
2022/07/18 02:38:36;;;;;;;1.70;1.60;;;15.10;92.70;;;;;;5011664;28;20461;-70
2022/07/18 02:41:02;;;;;;;1.93;1.73;;;15.10;92.70;;;;;;5011331;28;20491;-70
2022/07/18 02:43:29;;;;;;;2.17;1.57;;;15.00;92.60;;;;;;5011672;28;20472;-70
2022/07/18 02:45:56;;;;;;;1.70;1.50;;;15.00;92.50;;;;;;5011657;28;20884;-70
2022/07/18 02:48:24;;;;;;;1.53;1.40;;;15.00;92.90;;;;;;5011488;28;20493;-70
2022/07/18 02:50:50;;;;;;;2.00;1.80;;;15.00;93.00;;;;;;5011024;28;20461;-70
2022/07/18 02:53:19;;;;;;;1.37;1.27;;;15.00;93.00;;;;;;5011645;28;20465;-70
2022/07/18 02:55:45;;;;;;;1.80;1.57;;;14.90;92.80;;;;;;5011427;28;20477;-70
2022/07/18 02:58:12;;;;;;;3.20;1.70;;;14.90;92.60;;;;;;5011553;28;20859;-71
2022/07/18 03:00:39;;;;;;;2.17;1.50;;;14.90;92.60;;;;;;5010830;28;20476;-70
2022/07/18 03:03:05;;;;;;;3.13;1.60;;;14.90;92.70;;;;;;5011675;28;20456;-70
2022/07/18 03:05:33;;;;;;;2.43;1.73;;;14.90;92.90;;;;;;5011355;28;20493;-70
2022/07/18 03:08:00;;;;;;;1.80;1.70;;;14.80;92.90;;;;;;5011401;28;20492;-70
2022/07/18 03:10:27;;;;;;;7.63;1.90;;;14.80;93.00;;;;;;5010746;28;20468;-70
2022/07/18 03:12:54;;;;;;;4.10;2.00;;;14.80;93.40;;;;;;5011128;28;20466;-70
2022/07/18 03:15:20;;;;;;;2.20;2.00;;;14.70;93.10;;;;;;5011199;28;20620;-70
2022/07/18 03:17:47;;;;;;;2.33;1.80;;;14.70;93.20;;;;;;5011107;28;20457;-70
2022/07/18 03:20:14;;;;;;;2.07;1.50;;;14.70;93.30;;;;;;5010739;28;20863;-70
2022/07/18 03:22:42;;;;;;;1.50;1.40;;;14.70;93.30;;;;;;5011141;28;20465;-70
2022/07/18 03:25:09;;;;;;;2.10;1.90;;;14.60;93.30;;;;;;5011030;28;20477;-70
2022/07/18 03:27:36;;;;;;;1.97;1.60;;;14.60;93.40;;;;;;5011057;28;20952;-70
2022/07/18 03:30:03;;;;;;;2.17;1.87;;;14.60;93.60;;;;;;5010557;28;20469;-69
2022/07/18 03:32:29;;;;;;;2.30;1.97;;;14.60;93.80;;;;;;5012074;28;20453;-69
2022/07/18 03:34:56;;;;;;;2.43;2.03;;;14.60;93.90;;;;;;5005554;28;20480;-69
2022/07/18 03:37:23;;;;;;;2.00;1.60;;;14.50;93.80;;;;;;5002028;28;20454;-69
2022/07/18 03:39:51;;;;;;;1.90;1.70;;;14.50;93.80;;;;;;4999616;28;20827;-69
2022/07/18 03:42:17;;;;;;;1.70;1.53;;;14.50;93.90;;;;;;5000753;28;20461;-69
2022/07/18 03:44:45;;;;;;;2.80;1.83;;;14.50;94.10;;;;;;5001881;28;20485;-69
2022/07/18 03:47:12;;;;;;;2.30;1.67;;;14.50;94.20;;;;;;5000553;28;20513;-69
2022/07/18 03:49:38;;;;;;;2.20;1.60;;;14.40;94.30;;;;;;4999337;28;20481;-68
2022/07/18 03:52:06;;;;;;;2.50;1.73;;;14.40;94.40;;;;;;5000946;28;20462;-70
2022/07/18 03:54:33;;;;;;;3.27;2.03;;;14.50;94.60;;;;;;4996094;28;20199;-69
2022/07/18 03:57:01;;;;;;;2.03;1.80;;;14.50;94.80;;;;;;5000490;28;20464;-69
2022/07/18 03:59:27;;;;;;;1.97;1.77;;;14.50;94.90;;;;;;4992584;28;20623;-68
2022/07/18 04:01:54;;;;;;;2.83;2.10;;;14.50;94.90;;;;;;5000464;28;20458;-68
2022/07/18 04:04:21;;;;;;;2.87;2.30;;;14.50;95.20;;;;;;4998626;28;20469;-68
2022/07/18 04:06:48;;;;;;;2.70;2.37;;;14.50;95.30;;;;;;4999393;28;20555;-68
2022/07/18 04:09:15;;;;;;;3.00;2.23;;;14.50;95.30;;;;;;4999941;28;20484;-68
2022/07/18 04:11:41;;;;;;;2.43;1.90;;;14.50;95.60;;;;;;5000354;28;20458;-69
2022/07/18 04:14:09;;;;;;;3.30;2.53;;;14.50;95.60;;;;;;4999543;28;20982;-68
2022/07/18 04:16:36;;;;;;;2.40;2.20;;;14.50;95.90;;;;;;5002038;28;20488;-69
2022/07/18 04:19:03;;;;;;;3.43;2.63;;;14.50;95.90;;;;;;5003706;28;20453;-68
2022/07/18 04:21:30;;;;;;;2.87;2.13;;;14.50;96.20;;;;;;5003245;28;20458;-69
2022/07/18 04:23:56;;;;;;;4.50;2.43;;;14.50;96.20;;;;;;5002116;28;20458;-68
2022/07/18 04:26:23;;;;;;;3.60;2.27;;;14.50;96.50;;;;;;5003617;28;20488;-69
2022/07/18 04:28:50;;;;;;;3.23;2.40;;;14.50;96.60;;;;;;5008802;28;20481;-69
2022/07/18 04:31:18;;;;;;;2.50;1.97;;;14.50;96.70;;;;;;4994510;28;20469;-68
2022/07/18 04:33:45;;;;;;;2.70;2.20;;;14.60;96.90;;;;;;4992766;28;20466;-68
2022/07/18 04:36:12;;;;;;;4.33;2.13;;;14.60;97.10;;;;;;4993327;28;20895;-68
2022/07/18 04:38:39;;;;;;;4.03;2.10;;;14.60;97.40;;;;;;4993242;28;20466;-68
2022/07/18 04:41:06;;;;;;;4.63;2.90;;;14.60;97.50;;;;;;4992872;28;20457;-68
2022/07/18 04:43:33;;;;;;;4.73;2.70;;;14.60;97.50;;;;;;4993245;28;20513;-69
2022/07/18 04:46:00;;;;;;;3.57;2.60;;;14.70;97.80;;;;;;4993788;28;20490;-68
2022/07/18 04:48:28;;;;;;;3.27;2.80;;;14.70;97.70;;;;;;4994061;28;20485;-68
2022/07/18 04:50:55;;;;;;;2.70;2.50;;;14.80;98.20;;;;;;4993884;28;20466;-69
2022/07/18 04:53:21;;;;;;;3.30;2.67;;;14.80;98.40;;;;;;4994230;28;20469;-68
2022/07/18 04:55:48;;;;;;;4.37;2.70;;;14.90;98.20;;;;;;4994143;28;20506;-68
2022/07/18 04:58:15;;;;;;;3.03;2.73;;;14.90;98.50;;;;;;4994274;28;20458;-69
2022/07/18 05:00:42;;;;;;;2.83;2.40;;;14.90;98.60;;;;;;4993711;28;20472;-68
2022/07/18 05:03:08;;;;;;;4.37;2.33;;;15.00;99.00;;;;;;4994003;28;20469;-68
2022/07/18 05:05:36;;;;;;;3.53;2.70;;;15.00;99.10;;;;;;4993994;28;20485;-68
2022/07/18 05:08:03;;;;;;;4.03;2.43;;;15.10;99.10;;;;;;4993893;28;20466;-69
2022/07/18 05:10:30;;;;;;;3.73;2.97;;;15.10;99.20;;;;;;4993407;28;20466;-69
2022/07/18 05:12:57;;;;;;;3.10;2.63;;;15.20;99.00;;;;;;4993913;28;20470;-69
2022/07/18 05:15:25;;;;;;;2.67;2.27;;;15.30;99.00;;;;;;4993800;28;20513;-69
2022/07/18 05:17:52;;;;;;;2.60;2.40;;;15.30;99.00;;;;;;4993862;28;20469;-68
2022/07/18 05:20:21;;;;;;;5.73;2.70;;;15.40;98.70;;;;;;4993294;28;20466;-69
2022/07/18 05:22:51;;;;;;;2.83;2.53;;;15.50;98.50;;;;;;4993648;28;20469;-69
2022/07/18 05:25:18;;;;;;;3.70;2.90;;;15.60;98.80;;;;;;4993329;28;20572;-68
2022/07/18 05:27:44;;;;;;;3.10;2.20;;;15.60;99.30;;;;;;4993729;28;20462;-69
2022/07/18 05:30:14;;;;;;;3.87;2.23;;;15.80;99.70;;;;;;4992744;28;20843;-68
2022/07/18 05:32:41;;;;;;;3.80;2.60;;;15.80;99.60;;;;;;4993406;28;20470;-69
2022/07/18 05:35:10;;;;;;;3.37;2.33;;;15.90;99.80;;;;;;4993301;28;20478;-68
2022/07/18 05:37:37;;;;;;;3.80;2.50;;;16.00;99.80;;;;;;4993377;28;20473;-68
2022/07/18 05:40:08;;;;;;;5.73;2.40;;;16.10;99.20;;;;;;4993017;28;20578;-68
2022/07/18 05:42:35;;;;;;;2.63;2.07;;;16.10;98.60;;;;;;4993270;28;20964;-68
2022/07/18 05:45:01;;;;;;;3.60;1.97;;;16.20;99.20;;;;;;4993341;28;20482;-68
2022/07/18 05:47:28;;;;;;;3.57;2.33;;;16.30;99.10;;;;;;4995707;28;20469;-68
2022/07/18 05:49:55;;;;;;;2.50;2.30;;;16.40;99.10;;;;;;4992631;28;20497;-68
2022/07/18 05:52:21;;;;;;;4.33;2.83;;;16.50;98.90;;;;;;4993206;28;20466;-68
2022/07/18 05:54:48;;;;;;;3.03;2.23;;;16.60;98.90;;;;;;4993067;28;20509;-68
2022/07/18 05:57:16;;;;;;;2.80;2.43;;;16.70;98.90;;;;;;4993063;28;20476;-68
2022/07/18 05:59:43;;;;;;;6.00;2.43;;;16.90;98.60;;;;;;4992308;28;20561;-69
2022/07/18 06:02:10;;;;;;;3.57;2.37;;;17.00;98.20;;;;;;4992949;28;20466;-68
2022/07/18 06:04:37;;;;;;;2.70;2.10;;;17.10;97.60;;;;;;4992527;28;20477;-69
2022/07/18 06:07:04;;;;;;;3.30;2.47;;;17.20;97.20;;;;;;4992893;28;20465;-69
2022/07/18 06:09:31;;;;;;;3.97;3.50;;;17.30;97.30;;;;;;4991996;28;20490;-68
2022/07/18 06:11:59;;;;;;;5.03;2.57;;;17.50;97.00;;;;;;4992750;28;20498;-68
2022/07/18 06:14:27;;;;;;;3.80;2.40;;;17.60;96.60;;;;;;4992382;28;20494;-68
2022/07/18 06:16:54;;;;;;;2.53;2.07;;;17.70;96.00;;;;;;4993038;28;20469;-68
2022/07/18 06:19:21;;;;;;;6.50;2.80;;;17.80;96.00;;;;;;4992043;28;20465;-68
2022/07/18 06:21:48;;;;;;;3.10;2.10;;;17.90;95.60;;;;;;4998353;28;20469;-68
2022/07/18 06:24:15;;;;;;;5.93;2.50;;;18.10;95.70;;;;;;5002482;28;20464;-68
2022/07/18 06:26:41;;;;;;;3.67;2.30;;;18.20;95.30;;;;;;5002304;28;20993;-68
2022/07/18 06:29:08;;;;;;;2.53;2.33;;;18.40;94.80;;;;;;5035455;23;20551;-95
2022/07/18 06:31:36;;;;;;;3.07;2.40;;;18.60;94.40;;;;;;5058932;28;20428;-95
2022/07/18 06:34:03;;;;;;;2.43;2.23;;;18.60;94.30;;;;;;5059252;28;20476;-96
2022/07/18 06:36:30;;;;;;;3.50;2.13;;;18.80;94.10;;;;;;5059116;28;20464;-94
2022/07/18 06:38:57;;;;;;;2.90;1.90;;;18.90;92.80;;;;;;5058061;28;20473;-96
2022/07/18 06:41:24;;;;;;;4.30;2.50;;;19.00;93.00;;;;;;5058692;28;20433;-94
2022/07/18 06:43:51;;;;;;;3.20;2.10;;;19.10;93.10;;;;;;5058873;28;20459;-95
2022/07/18 06:46:17;;;;;;;3.13;2.30;;;19.20;92.60;;;;;;5058895;28;20512;-95
2022/07/18 06:48:45;;;;;;;2.70;2.00;;;19.30;92.80;;;;;;5058670;28;20463;-96
2022/07/18 06:51:12;;;;;;;2.50;2.17;;;19.60;92.90;;;;;;5058538;28;20443;-95
2022/07/18 06:53:39;;;;;;;3.30;2.10;;;19.70;92.60;;;;;;5058601;28;20465;-95
2022/07/18 06:56:06;;;;;;;3.53;2.90;;;19.90;92.50;;;;;;5058731;28;20499;-96
2022/07/18 06:58:33;;;;;;;3.10;2.40;;;20.00;92.60;;;;;;5058066;28;20495;-95
2022/07/18 07:01:04;;;;;;;3.00;2.30;;;20.20;91.80;;;;;;5057944;28;20444;-95
2022/07/18 07:03:31;;;;;;;2.60;2.40;;;20.30;91.80;;;;;;5041407;23;20521;-70
2022/07/18 07:05:59;;;;;;;3.70;2.67;;;20.50;91.80;;;;;;5010610;28;20477;-71
2022/07/18 07:08:25;;;;;;;3.17;2.87;;;20.50;91.90;;;;;;5011954;28;20479;-71
2022/07/18 07:10:52;;;;;;;3.30;2.67;;;20.70;92.60;;;;;;5011077;28;20679;-71
2022/07/18 07:13:19;;;;;;;5.53;2.67;;;20.80;92.20;;;;;;5011701;28;20465;-71
2022/07/18 07:15:45;;;;;;;2.80;2.50;;;20.90;92.30;;;;;;5011579;28;20488;-71
2022/07/18 07:18:12;;;;;;;7.43;3.00;;;21.00;92.00;;;;;;5011518;28;21119;-70
2022/07/18 07:20:39;;;;;;;6.00;3.00;;;21.20;92.00;;;;;;5011027;28;20457;-70
2022/07/18 07:23:08;;;;;;;4.47;2.80;;;21.30;92.20;;;;;;5014940;28;20465;-71
2022/07/18 07:25:36;;;;;;;4.43;2.93;;;21.40;91.90;;;;;;5016792;28;21013;-71
2022/07/18 07:28:04;;;;;;;4.07;2.60;;;21.60;91.30;;;;;;5016762;28;20465;-71
2022/07/18 07:30:32;;;;;;;3.03;2.73;;;21.60;91.70;;;;;;5016508;28;20481;-71
2022/07/18 07:33:00;;;;;;;3.40;3.10;;;21.70;91.80;;;;;;5016536;28;20971;-71
2022/07/18 07:35:27;;;;;;;4.83;2.70;;;21.80;92.00;;;;;;5016434;28;20492;-71
2022/07/18 07:37:56;;;;;;;6.73;3.23;;;21.80;92.40;;;;;;5016230;28;20472;-71
2022/07/18 07:40:26;;;;;;;6.70;2.70;;;22.00;93.20;;;;;;5015779;28;20458;-70
2022/07/18 07:43:04;;;;;;;3.07;2.70;;;22.10;92.70;;;;;;5016328;28;20464;-71
2022/07/18 07:45:31;;;;;;;6.07;3.17;;;22.20;91.50;;;;;;5015830;28;20488;-71
2022/07/18 07:47:58;;;;;;;7.27;3.30;;;22.30;92.20;;;;;;5016333;28;20476;-70
2022/07/18 07:50:25;;;;;;;3.70;2.30;;;22.40;91.40;;;;;;5019172;28;20492;-71
2022/07/18 07:52:51;;;;;;;4.13;2.23;;;22.50;91.30;;;;;;5019429;28;20471;-71
2022/07/18 07:55:18;;;;;;;5.93;2.77;;;22.60;90.60;;;;;;5019585;28;20481;-71
2022/07/18 07:57:46;;;;;;;3.60;2.73;;;22.80;89.70;;;;;;5020144;28;20465;-71
2022/07/18 08:00:13;;;;;;;7.27;3.13;;;23.00;90.00;;;;;;5019607;28;20460;-71
2022/07/18 08:02:51;;;;;;;5.50;2.50;;;23.10;90.30;;;;;;5019856;28;20473;-71
2022/07/18 08:05:18;;;;;;;5.40;2.87;;;23.20;90.40;;;;;;5020098;28;20481;-71
2022/07/18 08:07:45;;;;;;;6.40;2.77;;;23.20;90.00;;;;;;5016530;28;20459;-70
2022/07/18 08:10:12;;;;;;;3.20;2.17;;;23.30;90.70;;;;;;5016724;28;20499;-71
2022/07/18 08:12:38;;;;;;;2.60;2.40;;;23.50;91.50;;;;;;5016943;28;20461;-70
2022/07/18 08:15:08;;;;;;;4.20;2.27;;;23.60;90.30;;;;;;5018397;28;21003;-70
2022/07/18 08:17:35;;;;;;;3.40;2.83;;;23.70;90.30;;;;;;5018986;28;20899;-71
2022/07/18 08:20:02;;;;;;;3.37;2.50;;;23.80;89.50;;;;;;5017750;28;20545;-70
2022/07/18 08:22:28;;;;;;;1.97;1.87;;;23.80;89.50;;;;;;5018185;28;20468;-70
2022/07/18 08:24:55;;;;;;;2.77;2.57;;;24.00;89.50;;;;;;5018366;28;20492;-70
2022/07/18 08:27:22;;;;;;;4.80;2.43;;;24.10;90.00;;;;;;5017684;28;20461;-70
2022/07/18 08:29:49;;;;;;;3.47;2.50;;;24.20;86.20;;;;;;5016439;28;20866;-70
2022/07/18 08:32:17;;;;;;;4.60;2.57;;;24.30;87.00;;;;;;5017253;28;20457;-71
2022/07/18 08:34:44;;;;;;;4.20;2.67;;;24.40;85.90;;;;;;5017105;28;20477;-71
2022/07/18 08:37:11;;;;;;;7.73;3.57;;;24.50;87.30;;;;;;5018186;28;20457;-71
2022/07/18 08:39:37;;;;;;;2.43;2.00;;;24.60;89.90;;;;;;5015703;28;20466;-70
2022/07/18 08:42:05;;;;;;;2.70;2.43;;;24.80;84.20;;;;;;5012707;28;20469;-71
2022/07/18 08:44:35;;;;;;;2.90;2.60;;;24.80;87.80;;;;;;5014192;28;20829;-71
2022/07/18 08:47:03;;;;;;;3.50;2.60;;;24.90;90.40;;;;;;5016925;28;20552;-71
2022/07/18 08:49:31;;;;;;;3.17;2.37;;;25.00;90.10;;;;;;5015881;28;20485;-70
2022/07/18 08:51:58;;;;;;;4.13;2.40;;;25.10;90.00;;;;;;5016154;28;20453;-71
2022/07/18 08:54:25;;;;;;;2.83;2.40;;;25.30;86.00;;;;;;5016485;28;20497;-71
2022/07/18 08:56:52;;;;;;;2.57;2.37;;;25.40;89.50;;;;;;5016626;28;20484;-70
2022/07/18 08:59:19;;;;;;;6.27;2.47;;;25.50;87.10;;;;;;5015709;28;20548;-71
2022/07/18 09:01:45;;;;;;;2.37;2.17;;;25.60;87.30;;;;;;5016059;28;20465;-71
2022/07/18 09:04:16;;;;;;;3.80;2.60;;;25.70;90.10;;;;;;5016103;28;20468;-71
2022/07/18 09:06:46;;;;;;;3.73;2.20;;;25.80;87.70;;;;;;5018036;28;20489;-71
2022/07/18 09:09:14;;;;;;;3.60;2.83;;;25.90;83.50;;;;;;5015102;28;20465;-70
2022/07/18 09:11:55;;;;;;;4.93;2.43;;;26.00;79.10;;;;;;5015398;28;20465;-70
2022/07/18 09:14:33;;;;;;;2.97;2.40;;;26.00;82.80;;;;;;5015645;28;20474;-71
2022/07/18 09:17:05;;;;;;;4.90;2.50;;;26.10;85.80;;;;;;5014889;28;20469;-71
2022/07/18 09:19:32;;;;;;;6.27;2.93;;;26.30;83.30;;;;;;5014308;28;20469;-70
2022/07/18 09:22:20;;;;;;;3.57;3.27;;;26.40;82.50;;;;;;5014235;28;20472;-71
2022/07/18 09:24:53;;;;;;;3.20;2.53;;;26.60;82.90;;;;;;5014880;28;20468;-71
2022/07/18 09:27:28;;;;;;;6.53;2.60;;;26.70;84.50;;;;;;5014363;28;20838;-71
2022/07/18 09:30:14;;;;;;;2.60;2.40;;;26.80;83.00;;;;;;5015947;28;20490;-71
2022/07/18 09:32:42;;;;;;;3.70;2.40;;;26.90;81.70;;;;;;5016701;28;20517;-71
2022/07/18 09:35:11;;;;;;;3.93;2.43;;;27.00;79.40;;;;;;5017096;28;20539;-71
2022/07/18 09:37:40;;;;;;;2.97;2.60;;;27.10;76.80;;;;;;5015385;28;20465;-70
2022/07/18 09:40:17;;;;;;;2.13;2.03;;;27.10;75.90;;;;;;5013825;28;20453;-70
2022/07/18 09:42:44;;;;;;;2.67;2.47;;;27.10;80.50;;;;;;5015644;28;20460;-71
2022/07/18 09:45:11;;;;;;;2.37;2.10;;;27.10;74.60;;;;;;5015678;28;20485;-71
2022/07/18 09:47:51;;;;;;;3.07;2.50;;;27.10;73.60;;;;;;5015317;28;20517;-71
2022/07/18 09:50:23;;;;;;;3.20;2.90;;;27.20;79.80;;;;;;5014229;28;20520;-71
2022/07/18 09:53:02;;;;;;;2.90;2.30;;;27.30;79.80;;;;;;5012850;28;20536;-70
2022/07/18 09:55:29;;;;;;;3.03;2.27;;;27.40;79.70;;;;;;5012716;28;20481;-70
2022/07/18 09:58:05;;;;;;;3.00;2.53;;;27.40;79.10;;;;;;5013020;28;20469;-70
2022/07/18 10:00:34;;;;;;;3.70;2.30;;;27.60;78.00;;;;;;5011492;28;20462;-71
2022/07/18 10:03:03;;;;;;;2.53;2.33;;;27.60;79.80;;;;;;5012484;28;20475;-71
2022/07/18 10:05:32;;;;;;;3.47;2.30;;;27.70;77.00;;;;;;5011946;28;21434;-71
2022/07/18 10:08:01;;;;;;;5.00;1.97;;;27.80;77.20;;;;;;5012129;28;20467;-72
2022/07/18 10:10:29;;;;;;;2.23;1.97;;;27.90;77.90;;;;;;5011917;28;20865;-71
2022/07/18 10:12:57;;;;;;;2.60;2.40;;;28.10;77.10;;;;;;5011125;28;20478;-71
2022/07/18 10:15:25;;;;;;;3.90;2.20;;;28.20;79.50;;;;;;5011995;28;20488;-71
2022/07/18 10:17:52;;;;;;;3.03;2.00;;;28.40;76.40;;;;;;5011280;28;20463;-72
2022/07/18 10:20:26;;;;;;;2.20;2.00;;;28.50;76.40;;;;;;5008483;28;20966;-71
2022/07/18 10:22:56;;;;;;;2.40;2.20;;;28.60;78.60;;;;;;5011113;28;20468;-71
2022/07/18 10:25:25;;;;;;;2.33;2.10;;;28.70;79.10;;;;;;5012095;28;20486;-71
2022/07/18 10:27:54;;;;;;;3.13;2.47;;;28.80;76.40;;;;;;5011563;28;20496;-71
2022/07/18 10:30:32;;;;;;;2.57;2.37;;;28.90;75.90;;;;;;5010280;28;20924;-71
2022/07/18 10:32:59;;;;;;;2.83;2.63;;;29.00;72.20;;;;;;5011530;28;20537;-71
2022/07/18 10:36:02;;;;;;;3.30;2.20;;;29.00;72.50;;;;;;5011582;28;21001;-71
2022/07/18 10:38:29;;;;;;;3.27;2.63;;;29.00;75.60;;;;;;5011586;28;20460;-70
2022/07/18 10:41:14;;;;;;;2.03;1.83;;;29.00;71.40;;;;;;5010344;28;20460;-71
2022/07/18 10:43:45;;;;;;;2.87;2.57;;;28.90;71.60;;;;;;5011678;28;20463;-71
2022/07/18 10:46:13;;;;;;;2.40;2.20;;;29.00;74.60;;;;;;5011335;28;20518;-70
2022/07/18 10:48:54;;;;;;;2.57;2.37;;;29.20;70.60;;;;;;5014906;28;20464;-72
2022/07/18 10:51:32;;;;;;;2.30;2.10;;;29.20;74.20;;;;;;5014834;28;20492;-70
2022/07/18 10:54:08;;;;;;;2.20;2.00;;;29.20;67.50;;;;;;5014330;28;20464;-71
2022/07/18 10:57:10;;;;;;;2.03;1.90;;;29.20;66.00;;;;;;5013226;28;20496;-71
2022/07/18 10:59:38;;;;;;;2.37;2.17;;;29.00;67.80;;;;;;4969366;28;20473;-71
2022/07/18 11:02:07;;;;;;;4.20;2.77;;;29.10;71.90;;;;;;5002452;28;20458;-71
2022/07/18 11:04:37;;;;;;;6.70;3.67;;;29.30;76.20;;;;;;5011604;28;20499;-71
2022/07/18 11:07:06;;;;;;;4.33;2.60;;;29.50;74.10;;;;;;5010747;28;20554;-72
2022/07/18 11:09:37;;;;;;;3.70;2.67;;;29.70;74.10;;;;;;5011296;28;20479;-71
2022/07/18 11:12:22;;;;;;;2.90;2.20;;;29.80;73.60;;;;;;5012324;28;21008;-71
2022/07/18 11:15:07;;;;;;;5.80;2.60;;;30.10;76.20;;;;;;5011857;28;20510;-71
2022/07/18 11:18:02;;;;;;;3.97;2.57;;;30.30;73.20;;;;;;5011891;28;20463;-71
2022/07/18 11:20:35;;;;;;;2.37;2.17;;;30.40;71.40;;;;;;5011885;28;20462;-70
2022/07/18 11:23:05;;;;;;;2.80;2.60;;;30.50;72.90;;;;;;5011992;28;20897;-71
2022/07/18 11:25:32;;;;;;;4.63;3.77;;;30.60;71.70;;;;;;5012099;28;20519;-71
2022/07/18 11:28:00;;;;;;;2.90;2.17;;;30.60;73.00;;;;;;5012278;28;20456;-72
2022/07/18 11:30:26;;;;;;;2.60;2.27;;;30.60;72.60;;;;;;5010912;28;21103;-70
2022/07/18 11:32:53;;;;;;;3.50;2.27;;;30.60;66.30;;;;;;5014978;28;20468;-71
2022/07/18 11:35:25;;;;;;;2.80;2.00;;;30.30;64.30;;;;;;5011502;28;20507;-70
2022/07/18 11:37:53;;;;;;;2.33;1.90;;;30.30;70.00;;;;;;5010924;28;20915;-69
2022/07/18 11:40:20;;;;;;;2.27;2.00;;;30.20;62.00;;;;;;5010899;28;20466;-70
2022/07/18 11:42:47;;;;;;;3.33;2.27;;;29.90;65.50;;;;;;5010620;28;20472;-70
2022/07/18 11:45:17;;;;;;;5.33;2.13;;;30.00;68.90;;;;;;5011083;28;20484;-70
2022/07/18 11:47:48;;;;;;;2.00;1.80;;;30.20;72.10;;;;;;5010734;28;20459;-70
2022/07/18 11:50:15;;;;;;;2.30;2.10;;;30.40;69.10;;;;;;5010428;28;20492;-70
2022/07/18 11:52:43;;;;;;;2.30;2.10;;;30.70;69.90;;;;;;5011497;28;20966;-70
2022/07/18 11:55:11;;;;;;;2.40;1.83;;;30.90;67.70;;;;;;5011031;28;20497;-70
2022/07/18 11:57:38;;;;;;;2.10;1.87;;;30.90;70.60;;;;;;5011303;28;20469;-71
2022/07/18 12:00:18;;;;;;;2.30;2.10;;;31.00;69.50;;;;;;5009991;28;20476;-70
2022/07/18 12:02:44;;;;;;;3.17;2.07;;;31.10;70.40;;;;;;5011070;28;20476;-70
2022/07/18 12:05:11;;;;;;;2.40;1.83;;;31.20;67.00;;;;;;5010644;28;20488;-70
2022/07/18 12:07:38;;;;;;;2.67;1.80;;;31.20;60.50;;;;;;5010647;28;20473;-69
2022/07/18 12:10:16;;;;;;;2.53;1.97;;;31.20;61.40;;;;;;5009537;28;20466;-70
2022/07/18 12:12:43;;;;;;;2.93;2.17;;;31.30;58.90;;;;;;5010801;28;20469;-71
2022/07/18 12:15:10;;;;;;;3.73;2.17;;;31.20;68.30;;;;;;5010630;28;20492;-70
2022/07/18 12:17:47;;;;;;;1.90;1.70;;;31.40;66.60;;;;;;5011103;28;20556;-71
2022/07/18 12:20:16;;;;;;;2.23;2.03;;;31.50;65.90;;;;;;5009933;28;20462;-70
2022/07/18 12:23:07;;;;;;;3.50;2.47;;;31.60;66.50;;;;;;5010688;28;20461;-69
2022/07/18 12:25:56;;;;;;;2.00;1.80;;;31.60;67.20;;;;;;5010865;28;20847;-70
2022/07/18 12:28:25;;;;;;;2.83;2.30;;;31.60;63.00;;;;;;5013076;28;20459;-70
2022/07/18 12:30:52;;;;;;;2.50;2.00;;;31.60;66.60;;;;;;5105064;22;20489;-71
2022/07/18 12:33:21;;;;;;;2.83;2.40;;;31.70;67.50;;;;;;5049145;28;20468;-71
2022/07/18 12:35:56;;;;;;;2.30;2.10;;;31.70;62.40;;;;;;5050201;28;20573;-70
2022/07/18 12:38:22;;;;;;;3.00;1.90;;;31.80;65.50;;;;;;5053135;28;20485;-70
2022/07/18 12:40:52;;;;;;;3.03;1.80;;;31.90;65.70;;;;;;5052843;28;20833;-72
2022/07/18 12:43:24;;;;;;;2.00;1.80;;;32.00;67.20;;;;;;5053259;28;20534;-71
2022/07/18 12:45:51;;;;;;;2.13;1.80;;;32.10;67.80;;;;;;5052653;28;20505;-71
2022/07/18 12:48:18;;;;;;;3.23;2.10;;;32.20;68.80;;;;;;5053050;28;20463;-71
2022/07/18 12:50:46;;;;;;;2.00;1.83;;;32.30;68.40;;;;;;5053013;28;20479;-71
2022/07/18 12:53:13;;;;;;;2.03;1.93;;;32.20;62.30;;;;;;5052863;28;20465;-70
2022/07/18 12:55:40;;;;;;;2.20;2.00;;;32.20;61.80;;;;;;5052795;28;20496;-71
2022/07/18 12:58:07;;;;;;;3.63;1.83;;;32.10;64.80;;;;;;5052881;28;20821;-71